DBBB

Cadjehoun Airport

Cotonou, Benin
METAR DBBB 241100Z 18005KT 9999 SCT012 29/24 Q1013 NOSIG
Observed Flight Rules
Sep-24 @ 11:00 UTC (an hour ago) Visual Flight Rules
Wind Visibility Clouds
180° at 5 knots 10,000+ meters
  • Scattered at 1,200' AGL
Temperatures Readings
Current 29°C / 84°F
Dewpoint 24°C / 75°F
Humidity 74%
Altimeter 29.91" Hg
Pressure 1013 hPa
Elevation 9
METAR DBBB 241100Z 18005KT 9999 SCT012 29/24 Q1013 NOSIG
Observed Flight Rules
Sep-24 @ 11:00 UTC
(an hour ago)
VFR
Wind Visibility
180° at 5 knots 10,000+ meters
Clouds
  • Scattered at 1,200' AGL
Temperature Dewpoint
29°C / 84°F 24°C / 75°F
Humidity Altimeter Pressure
74% 29.91" Hg 1013 hPa